createdAt,value
2019-05-14T00:01:48.026Z,9.57
2019-05-14T00:04:16.748Z,9.83
2019-05-14T00:06:45.574Z,8.83
2019-05-14T00:09:14.301Z,9.50
2019-05-14T00:11:43.026Z,9.17
2019-05-14T00:14:11.928Z,9.30
2019-05-14T00:16:42.405Z,9.53
2019-05-14T00:19:11.387Z,9.93
2019-05-14T00:21:42.271Z,8.90
2019-05-14T00:24:11.365Z,9.80
2019-05-14T00:26:42.555Z,9.10
2019-05-14T00:29:11.513Z,9.87
2019-05-14T00:31:42.427Z,9.03
2019-05-14T00:34:11.292Z,8.77
2019-05-14T00:36:41.609Z,9.40
2019-05-14T00:39:11.326Z,8.83
2019-05-14T00:41:41.995Z,10.10
2019-05-14T00:44:10.853Z,8.97
2019-05-14T00:46:41.087Z,9.50
2019-05-14T00:49:11.878Z,9.83
2019-05-14T00:51:41.273Z,10.10
2019-05-14T00:54:11.232Z,10.40
2019-05-14T00:56:41.727Z,11.23
2019-05-14T00:59:11.354Z,10.80
2019-05-14T01:01:42.295Z,10.53
2019-05-14T01:04:11.822Z,10.90
2019-05-14T01:06:42.049Z,11.27
2019-05-14T01:09:11.496Z,10.40
2019-05-14T01:11:42.068Z,10.70
2019-05-14T01:14:12.276Z,10.50
2019-05-14T01:16:42.412Z,10.27
2019-05-14T01:19:12.368Z,10.60
2019-05-14T01:21:41.818Z,11.43
2019-05-14T01:24:12.623Z,11.60
2019-05-14T01:26:41.610Z,10.53
2019-05-14T01:29:11.946Z,11.10
2019-05-14T01:31:41.803Z,11.30
2019-05-14T01:34:11.226Z,10.97
2019-05-14T01:36:41.383Z,10.83
2019-05-14T01:39:12.143Z,11.30
2019-05-14T01:41:42.322Z,11.47
2019-05-14T01:44:11.964Z,11.43
2019-05-14T01:46:42.020Z,12.40
2019-05-14T01:49:12.054Z,11.43
2019-05-14T01:51:42.343Z,11.17
2019-05-14T01:54:11.912Z,10.67
2019-05-14T01:56:42.327Z,10.57
2019-05-14T01:59:12.116Z,11.20
2019-05-14T02:01:41.621Z,11.43
2019-05-14T02:04:11.597Z,11.90
2019-05-14T02:06:41.383Z,11.00
2019-05-14T02:09:11.110Z,10.43
2019-05-14T02:11:41.544Z,11.33
2019-05-14T02:14:11.692Z,11.30
2019-05-14T02:16:42.322Z,11.33
2019-05-14T02:19:11.635Z,10.70
2019-05-14T02:21:42.497Z,10.40
2019-05-14T02:24:11.474Z,11.93
2019-05-14T02:26:42.497Z,10.60
2019-05-14T02:29:12.475Z,11.07
2019-05-14T02:31:41.503Z,10.80
2019-05-14T02:34:10.528Z,11.20
2019-05-14T02:36:40.103Z,10.67
2019-05-14T02:39:10.124Z,10.80
2019-05-14T02:41:39.475Z,10.07
2019-05-14T02:44:09.972Z,10.33
2019-05-14T02:46:40.475Z,9.93
2019-05-14T02:49:10.450Z,10.27
2019-05-14T02:51:39.661Z,10.27
2019-05-14T02:54:10.032Z,10.60
2019-05-14T02:56:44.331Z,10.33
2019-05-14T02:59:19.815Z,10.27
2019-05-14T03:01:58.884Z,10.40
2019-05-14T03:04:26.197Z,10.80
2019-05-14T03:06:54.918Z,10.70
2019-05-14T03:09:23.754Z,10.07
2019-05-14T03:11:52.710Z,11.03
2019-05-14T03:14:21.451Z,11.20
2019-05-14T03:16:50.288Z,11.17
2019-05-14T03:19:19.772Z,10.50
2019-05-14T03:21:50.066Z,10.93
2019-05-14T03:24:19.720Z,11.57
2019-05-14T03:26:49.969Z,11.27
2019-05-14T03:29:19.652Z,11.20
2019-05-14T03:31:52.449Z,11.40
2019-05-14T03:34:22.040Z,10.33
2019-05-14T03:36:52.885Z,10.67
2019-05-14T03:39:20.112Z,10.73
2019-05-14T03:41:49.957Z,11.60
2019-05-14T03:44:19.974Z,11.90
2019-05-14T03:46:54.718Z,15.40
2019-05-14T03:49:20.053Z,16.47
2019-05-14T03:51:49.802Z,14.07
2019-05-14T03:54:19.595Z,13.53
2019-05-14T03:56:49.609Z,13.77
2019-05-14T03:59:19.921Z,13.87
2019-05-14T04:01:50.982Z,13.10
2019-05-14T04:04:19.899Z,12.87
2019-05-14T04:06:49.939Z,12.50
2019-05-14T04:09:20.674Z,12.77
2019-05-14T04:11:51.179Z,12.43
2019-05-14T04:14:22.798Z,12.77
2019-05-14T04:17:08.028Z,12.30
2019-05-14T04:19:24.972Z,11.50
2019-05-14T04:21:54.758Z,11.60
2019-05-14T04:24:24.444Z,10.73
2019-05-14T04:27:03.424Z,11.63
2019-05-14T04:29:30.718Z,11.63
2019-05-14T04:32:00.340Z,11.67
2019-05-14T04:34:30.154Z,10.27
2019-05-14T04:36:59.645Z,11.23
2019-05-14T04:39:30.728Z,10.97
2019-05-14T04:42:00.038Z,10.70
2019-05-14T04:44:29.919Z,10.03
2019-05-14T04:46:59.955Z,9.87
2019-05-14T04:49:29.445Z,9.57
2019-05-14T04:51:59.594Z,9.83
2019-05-14T04:54:30.239Z,8.83
2019-05-14T04:57:00.152Z,10.13
2019-05-14T04:59:29.913Z,9.27
2019-05-14T05:02:00.086Z,8.63
2019-05-14T05:04:29.797Z,8.83
2019-05-14T05:06:59.431Z,9.50
2019-05-14T05:09:29.264Z,9.57
2019-05-14T05:11:59.760Z,11.70
2019-05-14T05:14:29.658Z,11.70
2019-05-14T05:16:59.744Z,11.57
2019-05-14T05:19:29.164Z,10.63
2019-05-14T05:21:58.706Z,11.37
2019-05-14T05:24:28.733Z,11.13
2019-05-14T05:26:58.574Z,11.37
2019-05-14T05:29:28.606Z,12.07
2019-05-14T05:31:59.413Z,12.47
2019-05-14T05:34:28.428Z,11.33
2019-05-14T05:36:59.244Z,12.30
2019-05-14T05:39:28.375Z,13.47
2019-05-14T05:41:58.510Z,14.93
2019-05-14T05:44:28.709Z,15.87
2019-05-14T05:46:59.733Z,18.90
2019-05-14T05:49:29.125Z,15.90
2019-05-14T05:51:59.191Z,15.70
2019-05-14T05:54:29.221Z,13.90
2019-05-14T05:56:58.341Z,15.33
2019-05-14T05:59:29.337Z,14.10
2019-05-14T06:01:58.632Z,12.97
2019-05-14T06:04:29.060Z,15.00
2019-05-14T06:06:59.058Z,15.60
2019-05-14T06:09:28.810Z,12.33
2019-05-14T06:11:59.225Z,13.53
2019-05-14T06:14:29.144Z,13.97
2019-05-14T06:16:59.068Z,14.57
2019-05-14T06:19:29.019Z,13.77
2019-05-14T06:21:59.657Z,13.40
2019-05-14T06:24:28.748Z,13.43
2019-05-14T06:26:58.649Z,13.37
2019-05-14T06:29:29.015Z,13.87
2019-05-14T06:31:58.912Z,13.57
2019-05-14T06:34:29.108Z,13.67
2019-05-14T06:36:59.120Z,13.03
2019-05-14T06:39:28.628Z,12.27
2019-05-14T06:41:58.560Z,13.30
2019-05-14T06:44:29.402Z,12.37
2019-05-14T06:46:59.111Z,13.00
2019-05-14T06:49:28.981Z,12.60
2019-05-14T06:51:59.490Z,11.73
2019-05-14T06:54:29.330Z,12.07
2019-05-14T06:56:58.443Z,13.03
2019-05-14T06:59:28.740Z,13.30
2019-05-14T07:01:58.194Z,13.73
2019-05-14T07:04:28.863Z,13.97
2019-05-14T07:06:59.144Z,14.77
2019-05-14T07:09:28.984Z,14.83
2019-05-14T07:11:58.606Z,13.77
2019-05-14T07:14:28.315Z,14.33
2019-05-14T07:16:58.918Z,15.40
2019-05-14T07:19:29.359Z,14.23
2019-05-14T07:21:58.463Z,14.17
2019-05-14T07:24:28.273Z,13.60
2019-05-14T07:26:58.710Z,13.73
2019-05-14T07:29:29.275Z,14.60
2019-05-14T07:31:59.336Z,14.03
2019-05-14T07:34:28.489Z,14.70
2019-05-14T07:36:58.732Z,13.40
2019-05-14T07:39:29.094Z,19.63
2019-05-14T07:41:59.097Z,16.03
2019-05-14T07:44:29.643Z,12.97
2019-05-14T07:46:59.027Z,12.10
2019-05-14T07:49:29.677Z,12.23
2019-05-14T07:52:01.123Z,12.00
2019-05-14T07:54:29.940Z,12.20
2019-05-14T07:56:59.166Z,12.77
2019-05-14T07:59:34.771Z,13.00
2019-05-14T08:02:03.643Z,13.23
2019-05-14T08:04:32.380Z,11.93
2019-05-14T08:07:01.119Z,11.43
2019-05-14T08:09:29.932Z,11.17
2019-05-14T08:11:58.927Z,11.07
2019-05-14T08:14:29.378Z,9.67
2019-05-14T08:16:59.519Z,9.53
2019-05-14T08:19:31.525Z,9.90
2019-05-14T08:21:59.142Z,9.80
2019-05-14T08:24:30.110Z,10.00
2019-05-14T08:26:58.521Z,10.27
2019-05-14T08:29:28.641Z,10.87
2019-05-14T08:31:58.234Z,11.43
2019-05-14T08:34:30.419Z,11.33
2019-05-14T08:36:58.929Z,11.87
2019-05-14T08:39:28.559Z,12.00
2019-05-14T08:42:03.674Z,10.77
2019-05-14T08:44:29.363Z,10.80
2019-05-14T08:46:59.007Z,12.10
2019-05-14T08:49:38.968Z,12.63
2019-05-14T08:51:59.494Z,13.33
2019-05-14T08:54:28.581Z,10.53
2019-05-14T08:56:58.452Z,9.60
2019-05-14T08:59:28.626Z,9.43
2019-05-14T09:02:05.834Z,9.43
2019-05-14T09:04:30.160Z,9.17
2019-05-14T09:06:58.678Z,9.23
2019-05-14T09:09:29.073Z,9.07
2019-05-14T09:12:00.331Z,8.80
2019-05-14T09:14:29.183Z,9.60
2019-05-14T09:17:00.142Z,9.27
2019-05-14T09:19:30.529Z,8.23
2019-05-14T09:21:59.410Z,8.50
2019-05-14T09:24:29.413Z,7.37
2019-05-14T09:26:59.240Z,7.40
2019-05-14T09:29:29.714Z,7.20
2019-05-14T09:31:59.310Z,6.63
2019-05-14T09:34:29.121Z,6.50
2019-05-14T09:36:59.343Z,6.83
2019-05-14T09:39:31.458Z,7.17
2019-05-14T09:42:01.643Z,6.47
2019-05-14T09:44:30.412Z,7.40
2019-05-14T09:46:59.550Z,7.73
2019-05-14T09:49:28.409Z,8.47
2019-05-14T09:51:58.592Z,8.50
2019-05-14T09:54:28.805Z,8.03
2019-05-14T09:56:59.185Z,8.77
2019-05-14T09:59:28.458Z,9.20
2019-05-14T10:01:58.524Z,9.00
2019-05-14T10:04:27.589Z,8.73
2019-05-14T10:06:59.063Z,8.43
2019-05-14T10:09:28.974Z,9.23
2019-05-14T10:11:58.080Z,8.77
2019-05-14T10:14:29.612Z,7.50
2019-05-14T10:16:58.313Z,8.67
2019-05-14T10:19:29.642Z,8.17
2019-05-14T10:21:58.842Z,9.00
2019-05-14T10:24:29.099Z,8.67
2019-05-14T10:26:58.647Z,8.77
2019-05-14T10:29:28.615Z,8.33
2019-05-14T10:31:59.212Z,8.40
2019-05-14T10:34:28.717Z,7.50
2019-05-14T10:36:59.074Z,7.30
2019-05-14T10:39:29.877Z,7.80
2019-05-14T10:41:58.587Z,7.83
2019-05-14T10:44:29.317Z,7.33
2019-05-14T10:46:58.274Z,6.93
2019-05-14T10:49:29.744Z,7.20
2019-05-14T10:51:58.576Z,6.97
2019-05-14T10:54:29.242Z,7.77
2019-05-14T10:56:59.088Z,7.43
2019-05-14T10:59:31.261Z,6.50
2019-05-14T11:19:05.210Z,6.90
2019-05-14T11:21:34.011Z,6.30
2019-05-14T11:24:05.794Z,5.93
2019-05-14T11:26:35.163Z,5.93
2019-05-14T11:29:03.872Z,6.33
2019-05-14T11:31:34.375Z,6.53
2019-05-14T11:34:04.076Z,6.70
2019-05-14T11:36:32.832Z,6.77
2019-05-14T11:39:04.131Z,7.30
2019-05-14T11:41:32.076Z,6.23
2019-05-14T11:44:00.803Z,6.27
2019-05-14T11:46:43.613Z,6.70
2019-05-14T11:49:00.148Z,7.27
2019-05-14T11:51:54.713Z,6.93
2019-05-14T11:53:59.339Z,7.20
2019-05-14T11:56:29.447Z,7.40
2019-05-14T11:58:59.062Z,7.13
2019-05-14T12:01:29.780Z,9.27
2019-05-14T12:03:59.734Z,8.30
2019-05-14T12:06:30.418Z,7.67
2019-05-14T12:08:59.177Z,8.37
2019-05-14T12:11:29.080Z,8.87
2019-05-14T12:13:59.880Z,8.73
2019-05-14T12:16:29.238Z,8.53
2019-05-14T12:18:59.123Z,7.70
2019-05-14T12:21:28.872Z,8.10
2019-05-14T12:24:04.022Z,8.33
2019-05-14T12:26:28.471Z,8.53
2019-05-14T12:28:59.456Z,8.47
2019-05-14T12:31:28.905Z,9.10
2019-05-14T12:33:58.427Z,8.10
2019-05-14T12:36:29.242Z,8.83
2019-05-14T12:38:59.165Z,9.03
2019-05-14T12:41:38.239Z,8.80
2019-05-14T13:13:19.730Z,9.33
2019-05-14T13:15:48.590Z,10.10
2019-05-14T13:18:19.329Z,9.53
2019-05-14T13:20:48.255Z,9.47
2019-05-14T13:23:18.382Z,9.00
2019-05-14T13:25:47.250Z,10.50
2019-05-14T13:28:16.088Z,9.70
2019-05-14T13:30:44.819Z,9.10
2019-05-14T13:33:13.541Z,10.53
2019-05-14T13:35:42.492Z,9.53
2019-05-14T13:38:14.308Z,9.63
2019-05-14T13:40:41.672Z,9.70
2019-05-14T13:43:14.407Z,9.43
2019-05-14T13:45:41.964Z,10.07
2019-05-14T13:48:10.690Z,11.57
2019-05-14T13:50:40.253Z,10.80
2019-05-14T13:53:12.757Z,10.17
2019-05-14T13:55:46.238Z,10.07
2019-05-14T13:58:10.166Z,10.63
2019-05-14T14:00:38.910Z,11.33
2019-05-14T14:03:10.079Z,10.90
2019-05-14T14:05:39.201Z,11.53
2019-05-14T14:08:08.774Z,12.50
2019-05-14T14:10:44.802Z,12.60
2019-05-14T14:13:11.155Z,12.07
2019-05-14T14:15:38.963Z,12.47
2019-05-14T14:18:07.691Z,14.30
2019-05-14T14:20:39.248Z,13.73
2019-05-14T14:23:18.933Z,17.83
2019-05-14T14:25:39.486Z,18.47
2019-05-14T14:31:44.996Z,15.20
2019-05-14T14:34:13.724Z,13.47
2019-05-14T14:36:42.454Z,15.53
2019-05-14T14:39:11.265Z,15.53
2019-05-14T14:41:40.023Z,16.53
2019-05-14T14:44:09.065Z,17.77
2019-05-14T14:46:39.139Z,17.17
2019-05-14T14:49:10.923Z,16.40
2019-05-14T14:51:44.033Z,15.83
2019-05-14T14:54:15.238Z,14.33
2019-05-14T14:56:39.590Z,13.70
2019-05-14T14:59:09.535Z,14.40
2019-05-14T15:01:40.258Z,13.70
2019-05-14T15:04:13.629Z,13.57
2019-05-14T15:06:39.996Z,12.47
2019-05-14T15:09:09.712Z,12.20
2019-05-14T15:11:39.599Z,12.13
2019-05-14T15:14:08.646Z,12.43
2019-05-14T15:16:39.146Z,12.50
2019-05-14T15:19:09.497Z,12.43
2019-05-14T15:21:38.349Z,12.43
2019-05-14T15:24:15.168Z,12.53
2019-05-14T15:26:37.595Z,13.37
2019-05-14T15:29:09.673Z,13.30
2019-05-14T15:31:38.599Z,13.57
2019-05-14T15:34:08.979Z,12.53
2019-05-14T15:36:41.243Z,13.43
2019-05-14T15:39:10.081Z,14.20
2019-05-14T15:41:39.501Z,13.97
2019-05-14T15:44:09.008Z,14.20
2019-05-14T15:46:41.919Z,14.10
2019-05-14T15:49:09.113Z,14.13
2019-05-14T15:51:39.780Z,13.90
2019-05-14T15:54:34.533Z,14.37
2019-05-14T15:56:39.469Z,14.30
2019-05-14T15:59:08.851Z,15.10
2019-05-14T16:01:39.794Z,26.33
2019-05-14T16:04:11.413Z,20.17
2019-05-14T16:06:38.753Z,17.67
2019-05-14T16:09:07.830Z,17.27
2019-05-14T16:11:39.168Z,25.77
2019-05-14T16:14:08.233Z,16.83
2019-05-14T16:16:39.215Z,17.40
2019-05-14T16:19:08.362Z,16.67
2019-05-14T16:21:38.623Z,15.20
2019-05-14T16:24:08.299Z,14.53
2019-05-14T16:26:38.370Z,16.40
2019-05-14T16:29:08.888Z,16.07
2019-05-14T16:31:43.230Z,15.53
2019-05-14T16:34:09.809Z,15.43
2019-05-14T16:36:41.336Z,16.37
2019-05-14T16:39:09.791Z,17.60
2019-05-14T16:41:39.050Z,14.37
2019-05-14T16:44:09.061Z,15.87
2019-05-14T16:46:38.563Z,16.47
2019-05-14T16:49:08.947Z,15.33
2019-05-14T16:51:37.865Z,17.20
2019-05-14T16:54:06.662Z,14.77
2019-05-14T16:56:35.403Z,14.30
2019-05-14T16:59:04.154Z,13.90
2019-05-14T17:01:33.944Z,14.03
2019-05-14T17:04:04.733Z,15.27
2019-05-14T17:06:34.849Z,15.50
2019-05-14T17:09:05.073Z,14.93
2019-05-14T17:11:33.784Z,14.27
2019-05-14T17:14:02.607Z,13.23
2019-05-14T17:16:31.472Z,13.77
2019-05-14T17:19:00.231Z,14.03
2019-05-14T17:21:28.957Z,14.03
2019-05-14T17:23:58.150Z,14.13
2019-05-14T17:26:28.772Z,15.57
2019-05-14T17:28:59.671Z,14.77
2019-05-14T17:31:30.914Z,14.83
2019-05-14T17:33:58.723Z,15.23
2019-05-14T17:36:28.286Z,15.33
2019-05-14T17:38:58.625Z,14.93
2019-05-14T17:41:27.501Z,15.73
2019-05-14T17:43:58.461Z,15.53
2019-05-14T17:46:28.925Z,15.90
2019-05-14T17:48:59.114Z,14.67
2019-05-14T17:51:28.428Z,14.40
2019-05-14T17:53:58.667Z,14.80
2019-05-14T17:56:28.394Z,14.87
2019-05-14T17:58:57.938Z,14.27
2019-05-14T18:01:29.006Z,15.30
2019-05-14T18:03:58.471Z,14.67
2019-05-14T18:06:28.573Z,14.00
2019-05-14T18:08:58.680Z,14.67
2019-05-14T18:11:28.405Z,14.07
2019-05-14T18:13:58.970Z,15.27
2019-05-14T18:16:28.504Z,14.83
2019-05-14T18:18:58.319Z,15.53
2019-05-14T18:21:28.504Z,14.80
2019-05-14T18:23:58.599Z,14.00
2019-05-14T18:26:38.588Z,14.53
2019-05-14T18:29:08.749Z,14.67
2019-05-14T18:31:44.571Z,15.43
2019-05-14T18:34:08.122Z,16.03
2019-05-14T18:36:39.519Z,15.87
2019-05-14T18:39:09.258Z,16.30
2019-05-14T18:41:39.461Z,16.40
2019-05-14T18:44:08.521Z,15.47
2019-05-14T18:46:39.408Z,15.90
2019-05-14T18:49:08.790Z,14.77
2019-05-14T18:51:37.643Z,15.33
2019-05-14T18:54:08.015Z,14.50
2019-05-14T18:56:38.401Z,14.83
2019-05-14T18:59:09.089Z,14.57
2019-05-14T19:01:39.722Z,14.17
2019-05-14T19:04:08.376Z,14.80
2019-05-14T19:06:38.887Z,12.73
2019-05-14T19:09:10.705Z,14.17
2019-05-14T19:11:39.107Z,13.70
2019-05-14T19:14:09.001Z,14.13
2019-05-14T19:16:38.465Z,13.97
2019-05-14T19:19:08.091Z,14.20
2019-05-14T19:21:38.239Z,14.63
2019-05-14T19:24:09.068Z,15.37
2019-05-14T19:26:40.311Z,16.20
2019-05-14T19:29:08.752Z,17.10
2019-05-14T19:31:38.670Z,17.30
2019-05-14T19:34:08.499Z,17.17
2019-05-14T19:36:39.765Z,16.67
2019-05-14T19:39:08.568Z,16.07
2019-05-14T19:41:38.915Z,16.57
2019-05-14T19:44:08.792Z,16.63
2019-05-14T19:46:38.615Z,17.40
2019-05-14T19:49:08.162Z,16.93
2019-05-14T19:51:38.699Z,16.33
2019-05-14T19:54:08.256Z,16.97
2019-05-14T19:56:51.889Z,16.67
2019-05-14T19:59:09.076Z,15.17
2019-05-14T20:01:38.694Z,15.07
2019-05-14T20:04:09.526Z,16.57
2019-05-14T20:06:38.857Z,16.00
2019-05-14T20:09:09.562Z,16.43
2019-05-14T20:11:39.634Z,17.33
2019-05-14T20:14:08.899Z,16.20
2019-05-14T20:16:39.226Z,17.10
2019-05-14T20:19:08.808Z,17.97
2019-05-14T20:21:38.960Z,17.23
2019-05-14T20:24:07.929Z,17.30
2019-05-14T20:26:38.883Z,16.80
2019-05-14T20:29:08.721Z,16.37
2019-05-14T20:31:38.984Z,16.17
2019-05-14T20:34:08.469Z,17.00
2019-05-14T20:36:39.040Z,15.00
2019-05-14T20:39:08.662Z,15.27
2019-05-14T20:41:38.507Z,15.87
2019-05-14T20:44:07.592Z,16.63
2019-05-14T20:46:38.259Z,15.60
2019-05-14T20:49:08.862Z,16.03
2019-05-14T20:51:38.907Z,16.67
2019-05-14T20:54:08.912Z,15.73
2019-05-14T20:56:39.992Z,15.63
2019-05-14T20:59:08.424Z,16.67
2019-05-14T21:01:38.685Z,15.63
2019-05-14T21:04:09.024Z,15.67
2019-05-14T21:06:39.024Z,16.83
2019-05-14T21:09:08.060Z,15.87
2019-05-14T21:11:38.414Z,17.50
2019-05-14T21:14:08.918Z,16.37
2019-05-14T21:16:39.267Z,19.30
2019-05-14T21:19:08.618Z,17.90
2019-05-14T21:21:38.305Z,18.20
2019-05-14T21:24:10.097Z,18.87
2019-05-14T21:26:40.125Z,18.83
2019-05-14T21:29:09.205Z,19.77
2019-05-14T21:31:38.479Z,19.50
2019-05-14T21:34:08.193Z,20.70
2019-05-14T21:36:39.104Z,20.27
2019-05-14T21:39:08.092Z,19.93
2019-05-14T21:41:38.726Z,20.10
2019-05-14T21:44:08.559Z,20.83
2019-05-14T21:46:39.821Z,21.13
2019-05-14T21:49:11.131Z,20.70
2019-05-14T21:51:39.472Z,20.27
2019-05-14T21:54:09.451Z,22.03
2019-05-14T21:56:38.805Z,21.87
2019-05-14T21:59:09.595Z,21.30
2019-05-14T22:01:39.326Z,22.13
2019-05-14T22:04:11.476Z,22.10
2019-05-14T22:06:41.272Z,22.50
2019-05-14T22:09:10.207Z,22.23
2019-05-14T22:11:39.452Z,22.07
2019-05-14T22:14:08.512Z,22.50
2019-05-14T22:16:38.073Z,23.07
2019-05-14T22:19:08.478Z,22.60
2019-05-14T22:21:38.583Z,22.63
2019-05-14T22:24:07.904Z,22.67
2019-05-14T22:26:38.754Z,23.73
2019-05-14T22:29:08.342Z,22.80
2019-05-14T22:31:38.745Z,22.93
2019-05-14T22:34:08.927Z,23.60
2019-05-14T22:36:38.647Z,23.63
2019-05-14T22:39:07.607Z,24.17
2019-05-14T22:41:38.307Z,25.97
2019-05-14T22:44:09.066Z,23.63
2019-05-14T22:46:39.964Z,24.10
2019-05-14T22:49:09.208Z,24.50
2019-05-14T22:51:38.535Z,23.87
2019-05-14T22:54:08.726Z,22.90
2019-05-14T22:56:38.926Z,22.20
2019-05-14T22:59:08.011Z,22.93
2019-05-14T23:01:38.640Z,21.73
2019-05-14T23:04:08.997Z,22.50
2019-05-14T23:06:38.378Z,22.40
2019-05-14T23:09:09.046Z,23.03
2019-05-14T23:11:38.450Z,22.87
2019-05-14T23:14:07.626Z,23.33
2019-05-14T23:16:39.245Z,22.37
2019-05-14T23:19:07.964Z,22.73
2019-05-14T23:21:39.094Z,23.03
2019-05-14T23:24:09.203Z,22.63
2019-05-14T23:26:38.159Z,21.67
2019-05-14T23:29:07.065Z,22.03
2019-05-14T23:31:38.244Z,21.60
2019-05-14T23:34:06.605Z,21.60
2019-05-14T23:36:35.803Z,21.13
2019-05-14T23:39:08.869Z,21.43
2019-05-14T23:41:38.319Z,20.77
2019-05-14T23:44:08.351Z,20.90
2019-05-14T23:46:37.497Z,21.23
2019-05-14T23:49:08.741Z,21.80
2019-05-14T23:51:38.516Z,21.07
2019-05-14T23:54:08.776Z,21.80
2019-05-14T23:56:38.388Z,20.70
2019-05-14T23:59:09.310Z,22.33
